sensor_id;sensor_type;location;lat;lon;timestamp;P1;durP1;ratioP1;P2;durP2;ratioP2
36373;SDS011;22399;51.346;12.372;2023-05-27T00:01:09;11.77;;;2.28;;
36373;SDS011;22399;51.346;12.372;2023-05-27T00:03:39;7.03;;;1.92;;
36373;SDS011;22399;51.346;12.372;2023-05-27T00:06:08;12.38;;;2.80;;
36373;SDS011;22399;51.346;12.372;2023-05-27T00:08:36;11.93;;;2.28;;
36373;SDS011;22399;51.346;12.372;2023-05-27T00:11:05;14.10;;;1.80;;
36373;SDS011;22399;51.346;12.372;2023-05-27T00:13:33;19.15;;;2.80;;
36373;SDS011;22399;51.346;12.372;2023-05-27T00:16:03;13.13;;;3.15;;
36373;SDS011;22399;51.346;12.372;2023-05-27T00:18:33;12.55;;;2.05;;
36373;SDS011;22399;51.346;12.372;2023-05-27T00:21:02;11.95;;;2.28;;
36373;SDS011;22399;51.346;12.372;2023-05-27T00:23:31;9.88;;;1.95;;
36373;SDS011;22399;51.346;12.372;2023-05-27T00:25:59;11.50;;;2.20;;
36373;SDS011;22399;51.346;12.372;2023-05-27T00:28:28;9.13;;;3.00;;
36373;SDS011;22399;51.346;12.372;2023-05-27T00:30:57;15.05;;;2.70;;
36373;SDS011;22399;51.346;12.372;2023-05-27T00:33:27;6.30;;;2.13;;
36373;SDS011;22399;51.346;12.372;2023-05-27T00:35:56;11.23;;;2.40;;
36373;SDS011;22399;51.346;12.372;2023-05-27T00:38:25;10.27;;;2.20;;
36373;SDS011;22399;51.346;12.372;2023-05-27T00:40:53;16.90;;;2.63;;
36373;SDS011;22399;51.346;12.372;2023-05-27T00:43:24;8.73;;;2.92;;
36373;SDS011;22399;51.346;12.372;2023-05-27T00:45:53;10.80;;;2.58;;
36373;SDS011;22399;51.346;12.372;2023-05-27T00:48:21;11.82;;;2.95;;
36373;SDS011;22399;51.346;12.372;2023-05-27T00:50:51;12.48;;;2.25;;
36373;SDS011;22399;51.346;12.372;2023-05-27T00:53:20;18.92;;;2.42;;
36373;SDS011;22399;51.346;12.372;2023-05-27T00:55:51;11.88;;;2.50;;
36373;SDS011;22399;51.346;12.372;2023-05-27T00:58:21;19.15;;;2.83;;
36373;SDS011;22399;51.346;12.372;2023-05-27T01:00:50;6.70;;;2.00;;
36373;SDS011;22399;51.346;12.372;2023-05-27T01:03:19;12.80;;;2.35;;
36373;SDS011;22399;51.346;12.372;2023-05-27T01:05:48;21.98;;;3.03;;
36373;SDS011;22399;51.346;12.372;2023-05-27T01:08:24;14.68;;;2.60;;
36373;SDS011;22399;51.346;12.372;2023-05-27T01:10:57;7.38;;;2.75;;
36373;SDS011;22399;51.346;12.372;2023-05-27T01:13:29;7.22;;;3.00;;
36373;SDS011;22399;51.346;12.372;2023-05-27T01:16:05;14.13;;;2.55;;
36373;SDS011;22399;51.346;12.372;2023-05-27T01:18:39;9.73;;;2.40;;
36373;SDS011;22399;51.346;12.372;2023-05-27T01:21:14;13.68;;;2.63;;
36373;SDS011;22399;51.346;12.372;2023-05-27T01:23:48;15.52;;;2.83;;
36373;SDS011;22399;51.346;12.372;2023-05-27T01:26:17;7.18;;;2.17;;
36373;SDS011;22399;51.346;12.372;2023-05-27T01:28:45;23.88;;;2.80;;
36373;SDS011;22399;51.346;12.372;2023-05-27T01:31:15;14.95;;;2.25;;
36373;SDS011;22399;51.346;12.372;2023-05-27T01:33:48;13.77;;;2.63;;
36373;SDS011;22399;51.346;12.372;2023-05-27T01:38:55;12.63;;;2.28;;
36373;SDS011;22399;51.346;12.372;2023-05-27T01:41:26;11.25;;;2.58;;
36373;SDS011;22399;51.346;12.372;2023-05-27T01:43:57;11.45;;;1.67;;
36373;SDS011;22399;51.346;12.372;2023-05-27T01:46:26;11.82;;;2.45;;
36373;SDS011;22399;51.346;12.372;2023-05-27T01:48:55;15.43;;;3.40;;
36373;SDS011;22399;51.346;12.372;2023-05-27T01:51:23;10.50;;;2.53;;
36373;SDS011;22399;51.346;12.372;2023-05-27T01:53:51;7.57;;;2.28;;
36373;SDS011;22399;51.346;12.372;2023-05-27T01:56:21;17.45;;;2.92;;
36373;SDS011;22399;51.346;12.372;2023-05-27T01:58:50;16.15;;;3.50;;
36373;SDS011;22399;51.346;12.372;2023-05-27T02:01:19;17.60;;;3.10;;
36373;SDS011;22399;51.346;12.372;2023-05-27T02:03:50;8.05;;;2.38;;
36373;SDS011;22399;51.346;12.372;2023-05-27T02:06:19;7.43;;;2.55;;
36373;SDS011;22399;51.346;12.372;2023-05-27T02:08:48;9.05;;;2.63;;
36373;SDS011;22399;51.346;12.372;2023-05-27T02:11:16;7.13;;;2.38;;
36373;SDS011;22399;51.346;12.372;2023-05-27T02:13:46;13.00;;;2.15;;
36373;SDS011;22399;51.346;12.372;2023-05-27T02:16:16;15.43;;;2.45;;
36373;SDS011;22399;51.346;12.372;2023-05-27T02:18:47;5.38;;;2.30;;
36373;SDS011;22399;51.346;12.372;2023-05-27T02:21:16;11.00;;;2.60;;
36373;SDS011;22399;51.346;12.372;2023-05-27T02:23:45;13.45;;;2.03;;
36373;SDS011;22399;51.346;12.372;2023-05-27T02:26:13;10.15;;;2.83;;
36373;SDS011;22399;51.346;12.372;2023-05-27T02:28:42;10.82;;;2.85;;
36373;SDS011;22399;51.346;12.372;2023-05-27T02:31:12;6.78;;;2.22;;
36373;SDS011;22399;51.346;12.372;2023-05-27T02:33:40;7.07;;;2.83;;
36373;SDS011;22399;51.346;12.372;2023-05-27T02:36:08;7.22;;;3.08;;
36373;SDS011;22399;51.346;12.372;2023-05-27T02:38:37;19.83;;;3.35;;
36373;SDS011;22399;51.346;12.372;2023-05-27T02:41:05;8.80;;;2.42;;
36373;SDS011;22399;51.346;12.372;2023-05-27T02:43:35;14.55;;;3.35;;
36373;SDS011;22399;51.346;12.372;2023-05-27T02:46:03;8.55;;;2.30;;
36373;SDS011;22399;51.346;12.372;2023-05-27T02:48:33;10.15;;;2.72;;
36373;SDS011;22399;51.346;12.372;2023-05-27T02:51:02;17.95;;;2.60;;
36373;SDS011;22399;51.346;12.372;2023-05-27T02:53:30;12.95;;;2.97;;
36373;SDS011;22399;51.346;12.372;2023-05-27T02:55:59;13.50;;;2.63;;
36373;SDS011;22399;51.346;12.372;2023-05-27T02:58:28;10.07;;;2.40;;
36373;SDS011;22399;51.346;12.372;2023-05-27T03:00:56;14.82;;;2.67;;
36373;SDS011;22399;51.346;12.372;2023-05-27T03:03:25;15.77;;;2.55;;
36373;SDS011;22399;51.346;12.372;2023-05-27T03:05:55;18.40;;;2.85;;
36373;SDS011;22399;51.346;12.372;2023-05-27T03:08:24;12.38;;;2.17;;
36373;SDS011;22399;51.346;12.372;2023-05-27T03:10:52;14.73;;;3.13;;
36373;SDS011;22399;51.346;12.372;2023-05-27T03:13:21;16.38;;;2.75;;
36373;SDS011;22399;51.346;12.372;2023-05-27T03:15:49;8.25;;;2.45;;
36373;SDS011;22399;51.346;12.372;2023-05-27T03:18:18;13.63;;;2.70;;
36373;SDS011;22399;51.346;12.372;2023-05-27T03:20:47;11.20;;;2.95;;
36373;SDS011;22399;51.346;12.372;2023-05-27T03:23:18;20.13;;;3.13;;
36373;SDS011;22399;51.346;12.372;2023-05-27T03:25:49;13.23;;;2.30;;
36373;SDS011;22399;51.346;12.372;2023-05-27T03:28:18;17.77;;;2.72;;
36373;SDS011;22399;51.346;12.372;2023-05-27T03:30:47;10.27;;;2.60;;
36373;SDS011;22399;51.346;12.372;2023-05-27T03:33:29;8.48;;;2.15;;
36373;SDS011;22399;51.346;12.372;2023-05-27T03:35:57;8.77;;;3.05;;
36373;SDS011;22399;51.346;12.372;2023-05-27T03:38:27;17.67;;;2.60;;
36373;SDS011;22399;51.346;12.372;2023-05-27T03:40:56;17.95;;;3.10;;
36373;SDS011;22399;51.346;12.372;2023-05-27T03:43:26;20.63;;;3.08;;
36373;SDS011;22399;51.346;12.372;2023-05-27T03:45:55;7.47;;;2.58;;
36373;SDS011;22399;51.346;12.372;2023-05-27T03:48:24;9.05;;;2.40;;
36373;SDS011;22399;51.346;12.372;2023-05-27T03:50:52;14.45;;;3.22;;
36373;SDS011;22399;51.346;12.372;2023-05-27T03:53:22;17.25;;;3.90;;
36373;SDS011;22399;51.346;12.372;2023-05-27T03:55:52;7.05;;;2.72;;
36373;SDS011;22399;51.346;12.372;2023-05-27T03:58:20;10.98;;;3.22;;
36373;SDS011;22399;51.346;12.372;2023-05-27T04:00:49;11.05;;;2.53;;
36373;SDS011;22399;51.346;12.372;2023-05-27T04:03:18;16.48;;;2.90;;
36373;SDS011;22399;51.346;12.372;2023-05-27T04:05:48;14.07;;;2.33;;
36373;SDS011;22399;51.346;12.372;2023-05-27T04:08:17;13.50;;;3.00;;
36373;SDS011;22399;51.346;12.372;2023-05-27T04:10:45;13.07;;;2.97;;
36373;SDS011;22399;51.346;12.372;2023-05-27T04:13:15;20.20;;;3.58;;
36373;SDS011;22399;51.346;12.372;2023-05-27T04:15:44;18.25;;;3.20;;
36373;SDS011;22399;51.346;12.372;2023-05-27T04:18:14;8.25;;;2.10;;
36373;SDS011;22399;51.346;12.372;2023-05-27T04:20:43;11.18;;;3.22;;
36373;SDS011;22399;51.346;12.372;2023-05-27T04:23:15;7.05;;;2.15;;
36373;SDS011;22399;51.346;12.372;2023-05-27T04:25:43;12.95;;;2.03;;
36373;SDS011;22399;51.346;12.372;2023-05-27T04:28:12;12.43;;;2.67;;
36373;SDS011;22399;51.346;12.372;2023-05-27T04:30:45;14.43;;;2.83;;
36373;SDS011;22399;51.346;12.372;2023-05-27T04:33:29;19.05;;;4.50;;
36373;SDS011;22399;51.346;12.372;2023-05-27T04:35:58;8.77;;;3.20;;
36373;SDS011;22399;51.346;12.372;2023-05-27T04:38:37;12.43;;;2.90;;
36373;SDS011;22399;51.346;12.372;2023-05-27T04:41:06;9.23;;;2.72;;
36373;SDS011;22399;51.346;12.372;2023-05-27T04:43:55;11.93;;;2.88;;
36373;SDS011;22399;51.346;12.372;2023-05-27T04:46:28;12.30;;;3.05;;
36373;SDS011;22399;51.346;12.372;2023-05-27T04:48:57;22.17;;;2.95;;
36373;SDS011;22399;51.346;12.372;2023-05-27T04:51:26;13.85;;;2.60;;
36373;SDS011;22399;51.346;12.372;2023-05-27T04:53:55;17.23;;;3.35;;
36373;SDS011;22399;51.346;12.372;2023-05-27T04:56:24;5.70;;;2.10;;
36373;SDS011;22399;51.346;12.372;2023-05-27T04:58:55;13.23;;;2.83;;
36373;SDS011;22399;51.346;12.372;2023-05-27T05:01:32;13.63;;;2.08;;
36373;SDS011;22399;51.346;12.372;2023-05-27T05:04:28;12.38;;;2.63;;
36373;SDS011;22399;51.346;12.372;2023-05-27T05:07:00;18.80;;;2.88;;
36373;SDS011;22399;51.346;12.372;2023-05-27T05:09:32;13.65;;;2.70;;
36373;SDS011;22399;51.346;12.372;2023-05-27T05:12:08;16.52;;;2.63;;
36373;SDS011;22399;51.346;12.372;2023-05-27T05:14:41;13.70;;;3.00;;
36373;SDS011;22399;51.346;12.372;2023-05-27T05:17:10;9.13;;;2.80;;
36373;SDS011;22399;51.346;12.372;2023-05-27T05:19:40;17.90;;;3.20;;
36373;SDS011;22399;51.346;12.372;2023-05-27T05:22:10;14.00;;;2.35;;
36373;SDS011;22399;51.346;12.372;2023-05-27T05:24:41;8.38;;;2.38;;
36373;SDS011;22399;51.346;12.372;2023-05-27T05:27:10;16.08;;;2.97;;
36373;SDS011;22399;51.346;12.372;2023-05-27T05:29:38;11.93;;;2.95;;
36373;SDS011;22399;51.346;12.372;2023-05-27T05:32:11;10.57;;;2.78;;
36373;SDS011;22399;51.346;12.372;2023-05-27T05:34:40;9.38;;;2.10;;
36373;SDS011;22399;51.346;12.372;2023-05-27T05:37:10;11.93;;;2.67;;
36373;SDS011;22399;51.346;12.372;2023-05-27T05:39:40;11.88;;;2.45;;
36373;SDS011;22399;51.346;12.372;2023-05-27T05:42:10;10.90;;;2.92;;
36373;SDS011;22399;51.346;12.372;2023-05-27T05:44:39;9.43;;;2.30;;
36373;SDS011;22399;51.346;12.372;2023-05-27T05:47:09;12.85;;;2.47;;
36373;SDS011;22399;51.346;12.372;2023-05-27T05:49:38;6.25;;;2.67;;
36373;SDS011;22399;51.346;12.372;2023-05-27T05:52:09;15.20;;;2.63;;
36373;SDS011;22399;51.346;12.372;2023-05-27T05:54:38;13.75;;;3.10;;
36373;SDS011;22399;51.346;12.372;2023-05-27T05:57:06;13.80;;;3.28;;
36373;SDS011;22399;51.346;12.372;2023-05-27T05:59:35;17.55;;;2.78;;
36373;SDS011;22399;51.346;12.372;2023-05-27T06:02:04;17.58;;;2.67;;
36373;SDS011;22399;51.346;12.372;2023-05-27T06:04:34;5.82;;;2.40;;
36373;SDS011;22399;51.346;12.372;2023-05-27T06:07:04;9.13;;;2.45;;
36373;SDS011;22399;51.346;12.372;2023-05-27T06:09:49;14.05;;;2.47;;
36373;SDS011;22399;51.346;12.372;2023-05-27T06:12:23;8.32;;;2.00;;
36373;SDS011;22399;51.346;12.372;2023-05-27T06:14:53;11.63;;;2.08;;
36373;SDS011;22399;51.346;12.372;2023-05-27T06:17:29;9.55;;;1.95;;
36373;SDS011;22399;51.346;12.372;2023-05-27T06:20:00;11.13;;;1.73;;
36373;SDS011;22399;51.346;12.372;2023-05-27T06:22:29;12.63;;;3.25;;
36373;SDS011;22399;51.346;12.372;2023-05-27T06:25:00;17.17;;;1.90;;
36373;SDS011;22399;51.346;12.372;2023-05-27T06:27:42;12.05;;;2.25;;
36373;SDS011;22399;51.346;12.372;2023-05-27T06:30:11;7.78;;;2.20;;
36373;SDS011;22399;51.346;12.372;2023-05-27T06:32:42;11.43;;;2.33;;
36373;SDS011;22399;51.346;12.372;2023-05-27T06:35:14;13.43;;;2.15;;
36373;SDS011;22399;51.346;12.372;2023-05-27T06:37:43;22.65;;;3.40;;
36373;SDS011;22399;51.346;12.372;2023-05-27T06:40:16;7.78;;;2.05;;
36373;SDS011;22399;51.346;12.372;2023-05-27T06:42:45;14.15;;;2.15;;
36373;SDS011;22399;51.346;12.372;2023-05-27T06:45:32;6.90;;;1.48;;
36373;SDS011;22399;51.346;12.372;2023-05-27T06:48:17;15.98;;;2.05;;
36373;SDS011;22399;51.346;12.372;2023-05-27T06:50:48;12.50;;;1.73;;
36373;SDS011;22399;51.346;12.372;2023-05-27T06:53:17;10.30;;;1.52;;
36373;SDS011;22399;51.346;12.372;2023-05-27T06:55:56;13.52;;;1.90;;
36373;SDS011;22399;51.346;12.372;2023-05-27T06:58:44;7.20;;;1.65;;
36373;SDS011;22399;51.346;12.372;2023-05-27T07:01:16;8.00;;;1.70;;
36373;SDS011;22399;51.346;12.372;2023-05-27T07:06:31;6.90;;;1.67;;
36373;SDS011;22399;51.346;12.372;2023-05-27T07:08:59;18.67;;;3.40;;
36373;SDS011;22399;51.346;12.372;2023-05-27T07:11:32;2.90;;;1.17;;
36373;SDS011;22399;51.346;12.372;2023-05-27T07:14:08;9.82;;;1.98;;
36373;SDS011;22399;51.346;12.372;2023-05-27T07:16:39;8.20;;;1.38;;
36373;SDS011;22399;51.346;12.372;2023-05-27T07:19:09;8.63;;;1.63;;
36373;SDS011;22399;51.346;12.372;2023-05-27T07:21:49;11.23;;;2.30;;
36373;SDS011;22399;51.346;12.372;2023-05-27T07:24:20;12.18;;;2.42;;
36373;SDS011;22399;51.346;12.372;2023-05-27T07:26:50;6.07;;;1.58;;
36373;SDS011;22399;51.346;12.372;2023-05-27T07:29:20;11.20;;;1.25;;
36373;SDS011;22399;51.346;12.372;2023-05-27T07:31:51;10.98;;;1.83;;
36373;SDS011;22399;51.346;12.372;2023-05-27T07:34:26;7.27;;;1.40;;
36373;SDS011;22399;51.346;12.372;2023-05-27T07:36:56;5.75;;;1.35;;
36373;SDS011;22399;51.346;12.372;2023-05-27T07:39:25;7.90;;;1.38;;
36373;SDS011;22399;51.346;12.372;2023-05-27T07:41:54;4.38;;;1.10;;
36373;SDS011;22399;51.346;12.372;2023-05-27T07:44:24;5.50;;;1.27;;
36373;SDS011;22399;51.346;12.372;2023-05-27T07:46:55;9.35;;;1.70;;
36373;SDS011;22399;51.346;12.372;2023-05-27T07:49:24;12.77;;;1.63;;
36373;SDS011;22399;51.346;12.372;2023-05-27T07:52:05;4.43;;;1.77;;
36373;SDS011;22399;51.346;12.372;2023-05-27T07:54:34;5.70;;;0.90;;
36373;SDS011;22399;51.346;12.372;2023-05-27T07:57:13;8.73;;;1.63;;
36373;SDS011;22399;51.346;12.372;2023-05-27T07:59:43;6.50;;;1.42;;
36373;SDS011;22399;51.346;12.372;2023-05-27T08:02:12;7.53;;;0.77;;
36373;SDS011;22399;51.346;12.372;2023-05-27T08:04:42;6.13;;;1.50;;
36373;SDS011;22399;51.346;12.372;2023-05-27T08:07:39;4.97;;;1.45;;
36373;SDS011;22399;51.346;12.372;2023-05-27T08:10:39;5.47;;;1.60;;
36373;SDS011;22399;51.346;12.372;2023-05-27T08:13:36;6.07;;;1.15;;
36373;SDS011;22399;51.346;12.372;2023-05-27T08:16:28;11.38;;;0.95;;
36373;SDS011;22399;51.346;12.372;2023-05-27T08:19:32;9.50;;;1.17;;
36373;SDS011;22399;51.346;12.372;2023-05-27T08:22:17;8.18;;;1.13;;
36373;SDS011;22399;51.346;12.372;2023-05-27T08:25:06;3.38;;;1.33;;
36373;SDS011;22399;51.346;12.372;2023-05-27T08:27:55;10.32;;;1.45;;
36373;SDS011;22399;51.346;12.372;2023-05-27T08:30:51;8.45;;;1.95;;
36373;SDS011;22399;51.346;12.372;2023-05-27T08:33:30;3.10;;;1.05;;
36373;SDS011;22399;51.346;12.372;2023-05-27T08:35:59;13.88;;;1.58;;
36373;SDS011;22399;51.346;12.372;2023-05-27T08:38:27;12.98;;;2.67;;
36373;SDS011;22399;51.346;12.372;2023-05-27T08:41:09;8.73;;;1.63;;
36373;SDS011;22399;51.346;12.372;2023-05-27T08:43:38;11.82;;;1.45;;
36373;SDS011;22399;51.346;12.372;2023-05-27T08:46:08;10.20;;;1.92;;
36373;SDS011;22399;51.346;12.372;2023-05-27T08:48:37;7.50;;;1.00;;
36373;SDS011;22399;51.346;12.372;2023-05-27T08:51:05;5.28;;;1.45;;
36373;SDS011;22399;51.346;12.372;2023-05-27T08:53:36;7.85;;;1.67;;
36373;SDS011;22399;51.346;12.372;2023-05-27T08:56:06;9.82;;;1.88;;
36373;SDS011;22399;51.346;12.372;2023-05-27T08:58:42;9.15;;;1.38;;
36373;SDS011;22399;51.346;12.372;2023-05-27T09:01:11;8.65;;;1.52;;
36373;SDS011;22399;51.346;12.372;2023-05-27T09:03:44;3.85;;;1.42;;
36373;SDS011;22399;51.346;12.372;2023-05-27T09:06:13;8.90;;;2.13;;
36373;SDS011;22399;51.346;12.372;2023-05-27T09:08:41;6.10;;;1.55;;
36373;SDS011;22399;51.346;12.372;2023-05-27T09:11:21;6.68;;;1.52;;
36373;SDS011;22399;51.346;12.372;2023-05-27T09:13:54;9.38;;;1.60;;
36373;SDS011;22399;51.346;12.372;2023-05-27T09:16:23;8.40;;;1.40;;
36373;SDS011;22399;51.346;12.372;2023-05-27T09:18:52;4.72;;;1.23;;
36373;SDS011;22399;51.346;12.372;2023-05-27T09:21:20;6.60;;;1.40;;
36373;SDS011;22399;51.346;12.372;2023-05-27T09:23:54;7.60;;;1.35;;
36373;SDS011;22399;51.346;12.372;2023-05-27T09:26:24;12.57;;;1.52;;
36373;SDS011;22399;51.346;12.372;2023-05-27T09:28:54;7.22;;;0.98;;
36373;SDS011;22399;51.346;12.372;2023-05-27T09:31:24;5.72;;;1.60;;
36373;SDS011;22399;51.346;12.372;2023-05-27T09:33:53;5.70;;;1.48;;
36373;SDS011;22399;51.346;12.372;2023-05-27T09:36:22;9.40;;;1.23;;
36373;SDS011;22399;51.346;12.372;2023-05-27T09:38:51;5.22;;;1.42;;
36373;SDS011;22399;51.346;12.372;2023-05-27T09:41:22;12.13;;;1.67;;
36373;SDS011;22399;51.346;12.372;2023-05-27T09:43:55;4.18;;;1.02;;
36373;SDS011;22399;51.346;12.372;2023-05-27T09:46:24;8.20;;;1.40;;
36373;SDS011;22399;51.346;12.372;2023-05-27T09:48:53;3.30;;;1.02;;
36373;SDS011;22399;51.346;12.372;2023-05-27T09:51:21;3.90;;;1.05;;
36373;SDS011;22399;51.346;12.372;2023-05-27T09:53:51;9.43;;;1.05;;
36373;SDS011;22399;51.346;12.372;2023-05-27T09:56:22;4.95;;;1.27;;
36373;SDS011;22399;51.346;12.372;2023-05-27T09:58:54;3.38;;;1.65;;
36373;SDS011;22399;51.346;12.372;2023-05-27T10:01:24;5.10;;;1.17;;
36373;SDS011;22399;51.346;12.372;2023-05-27T10:03:55;2.45;;;0.82;;
36373;SDS011;22399;51.346;12.372;2023-05-27T10:06:25;3.00;;;0.50;;
36373;SDS011;22399;51.346;12.372;2023-05-27T10:08:54;6.53;;;1.00;;
36373;SDS011;22399;51.346;12.372;2023-05-27T10:11:23;11.88;;;1.65;;
36373;SDS011;22399;51.346;12.372;2023-05-27T10:13:54;10.52;;;1.17;;
36373;SDS011;22399;51.346;12.372;2023-05-27T10:16:22;4.22;;;1.15;;
36373;SDS011;22399;51.346;12.372;2023-05-27T10:18:55;8.43;;;1.52;;
36373;SDS011;22399;51.346;12.372;2023-05-27T10:21:26;6.45;;;1.20;;
36373;SDS011;22399;51.346;12.372;2023-05-27T10:23:56;7.95;;;1.80;;
36373;SDS011;22399;51.346;12.372;2023-05-27T10:26:31;6.97;;;1.75;;
36373;SDS011;22399;51.346;12.372;2023-05-27T10:29:08;6.22;;;0.98;;
36373;SDS011;22399;51.346;12.372;2023-05-27T10:31:43;6.78;;;1.15;;
36373;SDS011;22399;51.346;12.372;2023-05-27T10:34:18;7.47;;;1.60;;
36373;SDS011;22399;51.346;12.372;2023-05-27T10:36:47;5.40;;;1.45;;
36373;SDS011;22399;51.346;12.372;2023-05-27T10:39:27;16.05;;;1.48;;
36373;SDS011;22399;51.346;12.372;2023-05-27T10:41:56;8.73;;;1.48;;
36373;SDS011;22399;51.346;12.372;2023-05-27T10:44:32;5.43;;;1.38;;
36373;SDS011;22399;51.346;12.372;2023-05-27T10:47:02;6.70;;;1.75;;
36373;SDS011;22399;51.346;12.372;2023-05-27T10:49:32;8.60;;;1.30;;
36373;SDS011;22399;51.346;12.372;2023-05-27T10:52:06;4.32;;;1.13;;
36373;SDS011;22399;51.346;12.372;2023-05-27T10:54:40;7.47;;;1.45;;
36373;SDS011;22399;51.346;12.372;2023-05-27T10:57:09;9.00;;;1.48;;
36373;SDS011;22399;51.346;12.372;2023-05-27T10:59:52;6.43;;;1.33;;
36373;SDS011;22399;51.346;12.372;2023-05-27T11:02:28;7.65;;;1.30;;
36373;SDS011;22399;51.346;12.372;2023-05-27T11:04:59;5.57;;;1.17;;
36373;SDS011;22399;51.346;12.372;2023-05-27T11:07:27;5.07;;;1.60;;
36373;SDS011;22399;51.346;12.372;2023-05-27T11:09:55;5.63;;;1.38;;
36373;SDS011;22399;51.346;12.372;2023-05-27T11:12:23;9.82;;;1.38;;
36373;SDS011;22399;51.346;12.372;2023-05-27T11:14:54;10.20;;;1.55;;
36373;SDS011;22399;51.346;12.372;2023-05-27T11:17:23;8.93;;;1.20;;
36373;SDS011;22399;51.346;12.372;2023-05-27T11:19:53;11.27;;;1.77;;
36373;SDS011;22399;51.346;12.372;2023-05-27T11:22:22;7.25;;;1.05;;
36373;SDS011;22399;51.346;12.372;2023-05-27T11:24:56;5.75;;;1.13;;
36373;SDS011;22399;51.346;12.372;2023-05-27T11:27:31;4.53;;;1.20;;
36373;SDS011;22399;51.346;12.372;2023-05-27T11:30:07;12.20;;;1.25;;
36373;SDS011;22399;51.346;12.372;2023-05-27T11:32:40;6.30;;;1.85;;
36373;SDS011;22399;51.346;12.372;2023-05-27T11:35:14;5.10;;;1.67;;
36373;SDS011;22399;51.346;12.372;2023-05-27T11:37:45;4.30;;;1.20;;
36373;SDS011;22399;51.346;12.372;2023-05-27T11:40:14;4.95;;;1.08;;
36373;SDS011;22399;51.346;12.372;2023-05-27T11:42:43;5.82;;;1.50;;
36373;SDS011;22399;51.346;12.372;2023-05-27T11:45:18;6.22;;;1.40;;
36373;SDS011;22399;51.346;12.372;2023-05-27T11:47:47;5.97;;;1.63;;
36373;SDS011;22399;51.346;12.372;2023-05-27T11:50:18;5.68;;;1.17;;
36373;SDS011;22399;51.346;12.372;2023-05-27T11:52:52;5.80;;;1.20;;
36373;SDS011;22399;51.346;12.372;2023-05-27T11:55:21;7.70;;;1.13;;
36373;SDS011;22399;51.346;12.372;2023-05-27T11:57:50;6.88;;;0.95;;
36373;SDS011;22399;51.346;12.372;2023-05-27T12:00:20;9.38;;;1.42;;
36373;SDS011;22399;51.346;12.372;2023-05-27T12:02:48;3.40;;;1.17;;
36373;SDS011;22399;51.346;12.372;2023-05-27T12:05:17;8.35;;;1.73;;
36373;SDS011;22399;51.346;12.372;2023-05-27T12:08:00;7.65;;;1.35;;
36373;SDS011;22399;51.346;12.372;2023-05-27T12:10:30;10.48;;;2.08;;
36373;SDS011;22399;51.346;12.372;2023-05-27T12:13:02;10.02;;;1.85;;
36373;SDS011;22399;51.346;12.372;2023-05-27T12:15:32;3.95;;;1.45;;
36373;SDS011;22399;51.346;12.372;2023-05-27T12:18:01;12.70;;;1.73;;
36373;SDS011;22399;51.346;12.372;2023-05-27T12:20:29;6.22;;;1.05;;
36373;SDS011;22399;51.346;12.372;2023-05-27T12:22:58;4.95;;;1.27;;
36373;SDS011;22399;51.346;12.372;2023-05-27T12:25:27;8.50;;;1.23;;
36373;SDS011;22399;51.346;12.372;2023-05-27T12:27:56;5.00;;;1.13;;
36373;SDS011;22399;51.346;12.372;2023-05-27T12:30:24;5.95;;;1.40;;
36373;SDS011;22399;51.346;12.372;2023-05-27T12:32:54;3.45;;;1.15;;
36373;SDS011;22399;51.346;12.372;2023-05-27T12:35:23;9.00;;;2.97;;
36373;SDS011;22399;51.346;12.372;2023-05-27T12:37:51;5.65;;;1.00;;
36373;SDS011;22399;51.346;12.372;2023-05-27T12:40:20;4.70;;;1.45;;
36373;SDS011;22399;51.346;12.372;2023-05-27T12:42:49;6.63;;;1.20;;
36373;SDS011;22399;51.346;12.372;2023-05-27T12:45:17;4.60;;;1.30;;
36373;SDS011;22399;51.346;12.372;2023-05-27T12:47:48;5.88;;;1.00;;
36373;SDS011;22399;51.346;12.372;2023-05-27T12:50:18;3.08;;;1.02;;
36373;SDS011;22399;51.346;12.372;2023-05-27T12:52:48;8.27;;;1.52;;
36373;SDS011;22399;51.346;12.372;2023-05-27T12:55:18;8.65;;;2.20;;
36373;SDS011;22399;51.346;12.372;2023-05-27T12:57:50;13.10;;;2.10;;
36373;SDS011;22399;51.346;12.372;2023-05-27T13:00:19;9.75;;;1.58;;
36373;SDS011;22399;51.346;12.372;2023-05-27T13:02:48;6.53;;;1.10;;
36373;SDS011;22399;51.346;12.372;2023-05-27T13:05:18;7.50;;;1.17;;
36373;SDS011;22399;51.346;12.372;2023-05-27T13:07:54;5.22;;;0.93;;
36373;SDS011;22399;51.346;12.372;2023-05-27T13:10:24;4.35;;;1.30;;
36373;SDS011;22399;51.346;12.372;2023-05-27T13:12:53;5.60;;;1.48;;
36373;SDS011;22399;51.346;12.372;2023-05-27T13:15:22;8.00;;;1.65;;
36373;SDS011;22399;51.346;12.372;2023-05-27T13:17:51;3.60;;;1.48;;
36373;SDS011;22399;51.346;12.372;2023-05-27T13:20:22;7.68;;;1.17;;
36373;SDS011;22399;51.346;12.372;2023-05-27T13:22:52;7.45;;;1.55;;
36373;SDS011;22399;51.346;12.372;2023-05-27T13:25:20;4.13;;;1.60;;
36373;SDS011;22399;51.346;12.372;2023-05-27T13:27:49;3.55;;;1.10;;
36373;SDS011;22399;51.346;12.372;2023-05-27T13:30:20;6.20;;;1.17;;
36373;SDS011;22399;51.346;12.372;2023-05-27T13:32:49;2.97;;;1.17;;
36373;SDS011;22399;51.346;12.372;2023-05-27T13:35:17;3.85;;;1.15;;
36373;SDS011;22399;51.346;12.372;2023-05-27T13:37:47;5.22;;;0.90;;
36373;SDS011;22399;51.346;12.372;2023-05-27T13:40:16;9.77;;;2.22;;
36373;SDS011;22399;51.346;12.372;2023-05-27T13:42:45;3.30;;;1.20;;
36373;SDS011;22399;51.346;12.372;2023-05-27T13:45:13;2.67;;;1.50;;
36373;SDS011;22399;51.346;12.372;2023-05-27T13:47:42;5.00;;;1.20;;
36373;SDS011;22399;51.346;12.372;2023-05-27T13:50:11;5.28;;;1.20;;
36373;SDS011;22399;51.346;12.372;2023-05-27T13:52:39;6.03;;;1.05;;
36373;SDS011;22399;51.346;12.372;2023-05-27T13:55:09;6.35;;;1.48;;
36373;SDS011;22399;51.346;12.372;2023-05-27T13:57:38;7.10;;;1.58;;
36373;SDS011;22399;51.346;12.372;2023-05-27T14:00:07;6.45;;;1.45;;
36373;SDS011;22399;51.346;12.372;2023-05-27T14:02:36;10.38;;;1.75;;
36373;SDS011;22399;51.346;12.372;2023-05-27T14:05:05;5.60;;;1.20;;
36373;SDS011;22399;51.346;12.372;2023-05-27T14:07:38;7.68;;;1.30;;
36373;SDS011;22399;51.346;12.372;2023-05-27T14:10:10;4.10;;;1.05;;
36373;SDS011;22399;51.346;12.372;2023-05-27T14:12:38;4.95;;;1.27;;
36373;SDS011;22399;51.346;12.372;2023-05-27T14:15:07;3.85;;;1.25;;
36373;SDS011;22399;51.346;12.372;2023-05-27T14:17:37;9.10;;;1.60;;
36373;SDS011;22399;51.346;12.372;2023-05-27T14:20:06;4.57;;;1.58;;
36373;SDS011;22399;51.346;12.372;2023-05-27T14:22:38;6.13;;;1.48;;
36373;SDS011;22399;51.346;12.372;2023-05-27T14:25:06;9.88;;;1.38;;
36373;SDS011;22399;51.346;12.372;2023-05-27T14:27:36;8.85;;;1.42;;
36373;SDS011;22399;51.346;12.372;2023-05-27T14:30:06;4.95;;;1.25;;
36373;SDS011;22399;51.346;12.372;2023-05-27T14:32:35;2.00;;;0.98;;
36373;SDS011;22399;51.346;12.372;2023-05-27T14:35:04;3.00;;;1.05;;
36373;SDS011;22399;51.346;12.372;2023-05-27T14:37:33;7.13;;;1.85;;
36373;SDS011;22399;51.346;12.372;2023-05-27T14:40:02;6.70;;;1.52;;
36373;SDS011;22399;51.346;12.372;2023-05-27T14:42:31;2.35;;;1.08;;
36373;SDS011;22399;51.346;12.372;2023-05-27T14:45:01;6.68;;;1.50;;
36373;SDS011;22399;51.346;12.372;2023-05-27T14:47:30;4.78;;;1.35;;
36373;SDS011;22399;51.346;12.372;2023-05-27T14:49:59;2.78;;;1.10;;
36373;SDS011;22399;51.346;12.372;2023-05-27T14:52:28;7.57;;;1.25;;
36373;SDS011;22399;51.346;12.372;2023-05-27T14:54:56;2.60;;;1.13;;
36373;SDS011;22399;51.346;12.372;2023-05-27T14:57:25;5.82;;;1.23;;